Tiempo atmosférico en la estación meteorológica de Guijo De Granadilla, Cáceres (393 m.)



Fecha
DESCASC
Temp. máxima en grados centígrados (hora)
DESCASC
Temp. mínima en grados centígrados (hora)
DESCASC
Temp. media en grados centígrados
DESCASC
Racha de viento máxima en m/sg (hora)
DESCASC
Velocidad máxima media en intervalos de 10 minutos(hora)
DESCASC
Precipitaciones diarias en mm
DESCASC
Precipitaciones de 00:00 a 06:00 en mm
DESCASC
Precipitaciones de 06:00 a 12:00 en mm
DESCASC
Precipitaciones de 12:00 a 18:00 en mm
DESCASC
Precipitaciones de 18:00 a 24:00 en mm
DESCASC
22-08-2019 35.6 (18:10) 16.9 (08:00) 26.2 7.22 (15:50) 3.61 (19:30) 0 0 0 0 0
21-08-2019 34.3 (17:10) 19.5 (08:00) 26.9 8.89 (01:10) 5.56 (01:10) 0 0 0 0 0
20-08-2019 32.6 (17:20) 18.2 (08:00) 25.4 11.39 (09:20) 7.22 (09:10) 0 0 0 0 0
19-08-2019 30.9 (15:30) 20.1 (07:50) 25.5 7.5 (14:50) 5 (09:40) 0 0 0 0 0
18-08-2019 34.3 (17:40) 20.8 (00:00) 27.5 10.28 (18:10) 6.11 (18:30) 0 0 0 0 0
17-08-2019 37.2 (17:30) 23 (00:00) 30.1 8.89 (03:40) 5.28 (03:30) 0 0 0 0 0
16-08-2019 37.3 (18:30) 23.8 (00:00) 30.5 7.78 (14:30) 4.72 (01:00) 0 0 0 0 0
15-08-2019 38.2 (17:50) 22.9 (00:00) 30.6 8.61 (04:50) 5.28 (04:50) 0 0 0 0 0
14-08-2019 35.8 (18:30) 18 (00:00) 26.9 7.5 (16:50) 3.89 (01:00) 0 0 0 0 0
13-08-2019 32.7 (17:20) 16.8 (00:00) 24.8 9.17 (03:10) 4.72 (03:10) 0 0 0 0 0
12-08-2019 28.4 (18:10) 15.4 (00:00) 21.9 12.5 (13:50) 7.22 (13:50) 0 0 0 0 0
11-08-2019 27.7 (17:10) 15.9 (00:00) 21.8 15 (18:50) 5.28 (20:00) 0 0 0 0 0
10-08-2019 30.1 (18:10) 15.8 (00:00) 23 7.78 (10:30) 5.28 (10:30) 0 0 0 0 0
09-08-2019 25 (00:00) 16.7 (00:00) 20.9 8.89 (16:40) 5 (15:00) 6 0 0.6 5.4 0
08-08-2019 33 (17:10) 18.6 (00:00) 25.8 11.67 (17:20) 7.22 (17:50) 0 0 0 0 0
07-08-2019 27.4 (19:30) 20.3 (00:00) 23.8 6.39 (14:20) 3.89 (14:10) 0 0 0 0 0
06-08-2019 34.9 (17:50) 21.1 (00:00) 28 8.61 (17:20) 5 (14:10) 0 0 0 0 0
05-08-2019 35.7 (17:40) 15.4 (00:00) 25.6 8.06 (16:40) 4.17 (17:10) 0 0 0 0 0
04-08-2019 35.7 (18:30) 22 (00:00) 28.9 8.89 (15:00) 5.28 (15:00) 0 0 0 0 0
03-08-2019 36.3 (18:00) 18.2 (00:00) 27.3 8.33 (17:40) 4.44 (17:40) 0 0 0 0 0
02-08-2019 36.3 (18:10) 19.1 (00:00) 27.7 7.78 (14:40) 4.17 (05:10) 0 0 0 0 0
01-08-2019 34.9 (18:10) 19.1 (00:00) 27 8.89 (17:20) 5.56 (19:30) 0 0 0 0 0
31-07-2019 35.2 (17:30) 19.9 (00:00) 27.6 9.72 (15:00) 5.56 (01:40) 0 0 0 0 0
30-07-2019 30.8 (18:40) 15.9 (00:00) 23.3 11.94 (06:10) 7.22 (06:10) 0 0 0 0 0
29-07-2019 31.7 (16:10) 18.4 (00:00) 25.1 14.17 (15:50) 5.56 (20:10) 0 0 0 0 0
28-07-2019 32.1 (17:00) 18.1 (00:00) 25.1 8.61 (04:10) 5.28 (04:20) 0 0 0 0 0
27-07-2019 27.5 (20:50) 15.7 (00:00) 21.6 7.78 (15:50) 4.17 (12:50) 0 0 0 0 0
26-07-2019 29.8 (17:00) 18.3 (00:00) 24 8.61 (20:00) 5.28 (10:10) 0 0 0 0 0

Gráficas

Temp. máximas Temp. mínimas Temp. medias Precipitaciones Rachas de viento máximas Velocidades máximas media en intervalos de 10 minutos

Datos horarios

Fecha y hora oficial Temperatura (ºC) Velocidad del viento (km/h) Dirección del viento Racha (km/h) Dirección de racha Precipitación (mm) Presión (hPa) Tendencia (hPa) Humedad (%)
2019-08-24 23:00:00 26.7 5 Nordeste 10 Este 0 -- -- 30
2019-08-24 22:00:00 30.3 5 Sudoeste 7 Oeste 0 -- -- 24
2019-08-24 21:00:00 33.4 4 Oeste 7 Oeste 0 -- -- 22
2019-08-24 20:00:00 35.6 5 Oeste 17 Sudoeste 0 -- -- 18
2019-08-24 19:00:00 36.9 8 Oeste 22 Sudoeste 0 -- -- 17
2019-08-24 18:00:00 36.7 10 Oeste 30 Noroeste 0 -- -- 17
2019-08-24 17:00:00 37.5 8 Sudeste 23 Sudoeste 0 -- -- 17
2019-08-24 16:00:00 37.1 12 Sur 26 Sudoeste 0 -- -- 18
2019-08-24 15:00:00 36.2 13 Sudoeste 28 Sur 0 -- -- 18
2019-08-24 14:00:00 35.4 17 Sudoeste 28 Sudoeste 0 -- -- 20
2019-08-24 13:00:00 33.8 6 Norte 23 Oeste 0 -- -- 22
2019-08-24 12:00:00 31.8 5 Sur 11 Sur 0 -- -- 26
2019-08-24 11:00:00 29.2 3 Este 12 Norte 0 -- -- 34
2019-08-24 10:00:00 26 8 Norte 12 Nordeste 0 -- -- 39
2019-08-24 09:00:00 21.9 4 Nordeste 8 Este 0 -- -- 51
2019-08-24 08:00:00 19.4 3 Nordeste 8 Nordeste 0 -- -- 57
2019-08-24 07:00:00 20.6 6 Este 11 Norte 0 -- -- 53
2019-08-24 06:00:00 21 8 Nordeste 12 Nordeste 0 -- -- 52
2019-08-24 05:00:00 21.8 8 Nordeste 10 Norte 0 -- -- 48
2019-08-24 04:00:00 21.5 8 Norte 10 Norte 0 -- -- 51
2019-08-24 03:00:00 22.9 4 Nordeste 11 Nordeste 0 -- -- 43
2019-08-24 02:00:00 22.8 5 Nordeste 9 Este 0 -- -- 45
2019-08-24 01:00:00 23.4 9 Norte 14 Noroeste 0 -- -- 40
2019-08-24 00:00:00 24.7 5 Norte 9 Nordeste 0 -- -- 37
2019-08-23 23:00:00 26.8 3 Nordeste 12 Sudeste 0 -- -- 31
2019-08-23 22:00:00 29.6 -- -- -- -- 0 -- -- 28
2019-08-23 21:00:00 33 8 Sudoeste 15 Sudoeste 0 -- -- 23
2019-08-23 20:00:00 35.3 5 Sudoeste 18 Sudoeste 0 -- -- 20
2019-08-23 19:00:00 36 9 Oeste 19 Sudoeste 0 -- -- 20
2019-08-23 18:00:00 36.3 9 Sudoeste 29 Sudoeste 0 -- -- 20
2019-08-23 17:00:00 36.5 11 Sur 25 Sur 0 -- -- 20
2019-08-23 16:00:00 35.9 10 Sur 24 Sudoeste 0 -- -- 21
2019-08-23 15:00:00 35.5 14 Sudoeste 29 Sur 0 -- -- 21
2019-08-23 14:00:00 34.9 12 Sur 26 Sur 0 -- -- 23
2019-08-23 13:00:00 33.3 7 Oeste 14 Sudoeste 0 -- -- 23
2019-08-23 12:00:00 31.6 5 Sudoeste 10 Oeste 0 -- -- 23
2019-08-23 11:00:00 28.5 2 Norte 6 Oeste 0 -- -- 26
2019-08-23 10:00:00 24.4 3 Norte 8 Nordeste 0 -- -- 32
2019-08-23 09:00:00 20.6 3 Norte 11 Este 0 -- -- 43
2019-08-23 08:00:00 18.3 6 Este 11 Este 0 -- -- 48
2019-08-23 07:00:00 20.3 5 Nordeste 11 Este 0 -- -- 39
2019-08-23 06:00:00 21 6 Nordeste 13 Sudoeste 0 -- -- 38
2019-08-23 05:00:00 22.3 8 Este 13 Nordeste 0 -- -- 34
2019-08-23 04:00:00 24.3 8 Nordeste 14 Nordeste 0 -- -- 25
2019-08-23 03:00:00 25.3 9 Norte 19 Norte 0 -- -- 25
2019-08-23 02:00:00 26.2 12 Norte 21 Norte 0 -- -- 25
2019-08-23 01:00:00 27 13 Norte 21 Nordeste 0 -- -- 26
2019-08-23 00:00:00 26.7 9 Norte 13 Norte 0 -- -- 30
2019-08-22 23:00:00 27.4 7 Nordeste 13 Nordeste 0 -- -- 36
2019-08-22 22:00:00 29.6 4 Sur 9 Sur 0 -- -- 33
2019-08-22 21:00:00 32.6 5 Sudoeste 15 Sur 0 -- -- 29
2019-08-22 20:00:00 34.3 5 Sur 19 Sudoeste 0 -- -- 26
2019-08-22 19:00:00 35.1 11 Sudoeste 18 Sur 0 -- -- 25
2019-08-22 18:00:00 35.3 10 Sur 24 Sur 0 -- -- 25
2019-08-22 17:00:00 35.1 10 Oeste 22 Sudoeste 0 -- -- 25
2019-08-22 16:00:00 34.8 10 Sur 26 Sur 0 -- -- 26
2019-08-22 15:00:00 33.7 9 Sur 24 Sudeste 0 -- -- 28
2019-08-22 14:00:00 33.2 5 Sudoeste 21 Sudoeste 0 -- -- 30
2019-08-22 13:00:00 31.8 8 Sudoeste 18 Sudoeste 0 -- -- 31
2019-08-22 12:00:00 29 4 Norte 15 Nordeste 0 -- -- 34
2019-08-22 11:00:00 26.8 5 Este 11 Nordeste 0 -- -- 38
2019-08-22 10:00:00 23.7 8 Nordeste 17 Norte 0 -- -- 45
2019-08-22 09:00:00 21.1 5 Nordeste 10 Nordeste 0 -- -- 52
2019-08-22 08:00:00 16.9 3 Nordeste 8 Sudoeste 0 -- -- 65
2019-08-22 07:00:00 17.6 3 Noroeste 10 Sur 0 -- -- 62
2019-08-22 06:00:00 19.1 4 Norte 10 Este 0 -- -- 58
2019-08-22 05:00:00 20.4 8 Nordeste 10 Nordeste 0 -- -- 54
2019-08-22 04:00:00 20.8 4 Nordeste 8 Este 0 -- -- 50
2019-08-22 03:00:00 22.5 5 Sudoeste 8 Sudoeste 0 -- -- 46
2019-08-22 02:00:00 24.3 4 Nordeste 10 Norte 0 -- -- 40
2019-08-22 01:00:00 25 7 Norte 12 Nordeste 0 -- -- 41
2019-08-22 00:00:00 24.3 5 Norte 8 Norte 0 -- -- 46
2019-08-21 23:00:00 24.9 5 Nordeste 9 Nordeste 0 -- -- 44
2019-08-21 22:00:00 27.3 6 Nordeste 13 Nordeste 0 -- -- 40
2019-08-21 21:00:00 31 5 Oeste 15 Sudoeste 0 -- -- 33
2019-08-21 20:00:00 32.8 9 Oeste 21 Sur 0 -- -- 29
2019-08-21 19:00:00 33.2 6 Sudoeste 14 Oeste 0 -- -- 28
2019-08-21 18:00:00 33.9 5 Sur 18 Sur 0 -- -- 27
2019-08-21 17:00:00 33.9 8 Sudeste 18 Este 0 -- -- 27
2019-08-21 16:00:00 32.8 8 Sur 23 Sur 0 -- -- 31
2019-08-21 15:00:00 31.5 8 Oeste 32 Oeste 0 -- -- 36
2019-08-21 14:00:00 30.5 8 Sudeste 15 Este 0 -- -- 39
2019-08-21 13:00:00 29 5 Oeste 14 Noroeste 0 -- -- 40
2019-08-21 12:00:00 26.8 5 Norte 13 Norte 0 -- -- 41
2019-08-21 11:00:00 24.9 5 Nordeste 18 Nordeste 0 -- -- 43
2019-08-21 10:00:00 22.9 12 Nordeste 19 Nordeste 0 -- -- 47
2019-08-21 09:00:00 20.6 13 Norte 20 Norte 0 -- -- 53
2019-08-21 08:00:00 19.5 10 Norte 20 Norte 0 -- -- 54
2019-08-21 07:00:00 20.1 12 Norte 19 Nordeste 0 -- -- 52
2019-08-21 06:00:00 20.7 12 Norte 18 Norte 0 -- -- 50
2019-08-21 05:00:00 21 12 Norte 18 Nordeste 0 -- -- 49
2019-08-21 04:00:00 21.8 10 Nordeste 27 Norte 0 -- -- 46
2019-08-21 03:00:00 22.4 16 Norte 26 Norte 0 -- -- 44
2019-08-21 02:00:00 23.3 14 Norte 32 Norte 0 -- -- 42
2019-08-21 01:00:00 24.5 19 Norte 32 Norte 0 -- -- 39
2019-08-21 00:00:00 26 18 Norte 31 Norte 0 -- -- 34
2019-08-20 23:00:00 27.4 17 Nordeste 33 Nordeste 0 -- -- 29
2019-08-20 22:00:00 28.2 12 Nordeste 24 Norte 0 -- -- 31
2019-08-20 21:00:00 30.3 10 Nordeste 21 Nordeste 0 -- -- 28
2019-08-20 20:00:00 31.7 14 Norte 23 Norte 0 -- -- 26
2019-08-20 19:00:00 32.3 12 Nordeste 24 Norte 0 -- -- 27
2019-08-20 18:00:00 32.4 12 Norte 29 Norte 0 -- -- 27
2019-08-20 17:00:00 32 13 Norte 25 Norte 0 -- -- 28
2019-08-20 16:00:00 31.4 15 Norte 31 Norte 0 -- -- 29
2019-08-20 15:00:00 30.9 15 Nordeste 33 Nordeste 0 -- -- 31
2019-08-20 14:00:00 29.5 19 Norte 33 Norte 0 -- -- 34
2019-08-20 13:00:00 27.8 17 Norte 34 Norte 0 -- -- 38
2019-08-20 12:00:00 25 19 Norte 33 Norte 0 -- -- 46
2019-08-20 11:00:00 23 21 Norte 36 Nordeste 0 -- -- 50
2019-08-20 10:00:00 20.7 18 Norte 41 Norte 0 -- -- 56
2019-08-20 09:00:00 19.3 24 Norte 39 Norte 0 -- -- 60
2019-08-20 08:00:00 18.2 23 Norte 38 Norte 0 -- -- 62
2019-08-20 07:00:00 18.8 21 Norte 37 Nordeste 0 -- -- 60
2019-08-20 06:00:00 20 21 Norte 39 Nordeste 0 -- -- 57
2019-08-20 05:00:00 20.9 21 Norte 39 Norte 0 -- -- 55
2019-08-20 04:00:00 22.3 17 Norte 28 Nordeste 0 -- -- 52
2019-08-20 03:00:00 23.2 15 Norte 23 Norte 0 -- -- 44
2019-08-20 02:00:00 24 9 Norte 19 Norte 0 -- -- 37
2019-08-20 01:00:00 24.3 8 Norte 19 Norte 0 -- -- 40
2019-08-20 00:00:00 25.4 12 Norte 19 Norte 0 -- -- 43
2019-08-19 23:00:00 25.6 10 Norte 19 Norte 0 -- -- 42
2019-08-19 22:00:00 26.3 8 Norte 15 Nordeste 0 -- -- 42
2019-08-19 21:00:00 27.7 10 Norte 19 Norte 0 -- -- 39
2019-08-19 20:00:00 28.4 6 Noroeste 15 Oeste 0 -- -- 34
2019-08-19 19:00:00 29.5 6 Sudoeste 18 Sudoeste 0 -- -- 29
2019-08-19 18:00:00 29.5 9 Sur 21 Sur 0 -- -- 26
2019-08-19 17:00:00 29.8 14 Sur 23 Sur 0 -- -- 26
2019-08-19 16:00:00 30.3 12 Sur 24 Sur 0 -- -- 31
2019-08-19 15:00:00 30.5 12 Sur 27 Sudoeste 0 -- -- 34
2019-08-19 14:00:00 30.6 6 Sudoeste 22 Sudoeste 0 -- -- 36
2019-08-19 13:00:00 28.6 7 Oeste 14 Oeste 0 -- -- 36
2019-08-19 12:00:00 26.7 3 Norte 17 Norte 0 -- -- 40
2019-08-19 11:00:00 25 11 Norte 22 Norte 0 -- -- 45
2019-08-19 10:00:00 23.2 14 Norte 26 Norte 0 -- -- 49
2019-08-19 09:00:00 22 13 Norte 26 Norte 0 -- -- 52
2019-08-19 08:00:00 20.1 13 Norte 21 Norte 0 -- -- 61
2019-08-19 07:00:00 20.6 11 Norte 22 Norte 0 -- -- 61
2019-08-19 06:00:00 21 10 Norte 19 Norte 0 -- -- 61
2019-08-19 05:00:00 21.6 10 Norte 23 Norte 0 -- -- 60
2019-08-19 04:00:00 22.3 14 Norte 25 Norte 0 -- -- 58
2019-08-19 03:00:00 23.2 13 Norte 20 Norte 0 -- -- 58
2019-08-19 02:00:00 24.1 7 Nordeste 17 Nordeste 0 -- -- 57
2019-08-19 01:00:00 23.4 5 Norte 9 Norte 0 -- -- 57
2019-08-19 00:00:00 24.4 4 Norte 10 Norte 0 -- -- 52
2019-08-18 23:00:00 26 6 Noroeste 15 Noroeste 0 -- -- 47
2019-08-18 22:00:00 27.5 10 Noroeste 18 Noroeste 0 -- -- 44
2019-08-18 21:00:00 29.6 13 Noroeste 24 Noroeste 0 -- -- 42
2019-08-18 20:00:00 32.1 9 Oeste 28 Sudoeste 0 -- -- 29
2019-08-18 19:00:00 33.7 15 Sur 37 Sudoeste 0 -- -- 27
2019-08-18 18:00:00 34.1 17 Sudoeste 29 Sur 0 -- -- 25
2019-08-18 17:00:00 33.4 19 Sudoeste 33 Sudoeste 0 -- -- 26
2019-08-18 16:00:00 33.7 18 Sudoeste 30 Sudoeste 0 -- -- 26
2019-08-18 15:00:00 33.2 10 Sudoeste 29 Sudoeste 0 -- -- 26
2019-08-18 14:00:00 31.8 12 Sudoeste 28 Sudoeste 0 -- -- 29
2019-08-18 13:00:00 29.9 12 Sudoeste 25 Sur 0 -- -- 34
2019-08-18 12:00:00 29.5 11 Sudoeste 20 Sudoeste 0 -- -- 35
2019-08-18 11:00:00 28.5 4 Oeste 14 Norte 0 -- -- 31
2019-08-18 10:00:00 25.5 11 Norte 19 Norte 0 -- -- 42
2019-08-18 09:00:00 22.8 13 Norte 22 Norte 0 -- -- 51
2019-08-18 08:00:00 20.8 8 Nordeste 18 Norte 0 -- -- 61
2019-08-18 07:00:00 21.1 8 Norte 16 Norte 0 -- -- 57
2019-08-18 06:00:00 21.5 8 Noroeste 16 Nordeste 0 -- -- 55
2019-08-18 05:00:00 23.3 10 Norte 22 Nordeste 0 -- -- 55
2019-08-18 04:00:00 24.3 14 Norte 23 Norte 0 -- -- 54
2019-08-18 03:00:00 22.7 6 Norte 14 Norte 0 -- -- 56
2019-08-18 02:00:00 22.9 8 Norte 13 Norte 0 -- -- 48
2019-08-18 01:00:00 22.9 3 Este 10 Nordeste 0 -- -- 35
2019-08-18 00:00:00 24.8 5 Oeste 8 Sudoeste 0 -- -- 30
2019-08-17 23:00:00 28.5 5 Oeste 9 Oeste 0 -- -- 25
2019-08-17 22:00:00 30.7 5 Sudoeste 8 Sudoeste 0 -- -- 22
2019-08-17 21:00:00 34.6 8 Sudoeste 18 Sudoeste 0 -- -- 18
2019-08-17 20:00:00 36.1 14 Sudoeste 27 Sudoeste 0 -- -- 18
2019-08-17 19:00:00 36.8 17 Sudoeste 28 Sur 0 -- -- 18
2019-08-17 18:00:00 36.9 13 Sur 27 Sur 0 -- -- 19
2019-08-17 17:00:00 37 12 Sur 28 Sudoeste 0 -- -- 17
2019-08-17 16:00:00 36.7 14 Sudoeste 28 Sudoeste 0 -- -- 19
2019-08-17 15:00:00 35.2 11 Sudoeste 27 Sudoeste 0 -- -- 24
2019-08-17 14:00:00 34.6 13 Sudoeste 24 Sudoeste 0 -- -- 26
2019-08-17 13:00:00 33.2 13 Sudoeste 23 Sur 0 -- -- 26
2019-08-17 12:00:00 31.5 9 Sur 17 Sur 0 -- -- 30
2019-08-17 11:00:00 29.3 4 Este 14 Nordeste 0 -- -- 35
2019-08-17 10:00:00 26.7 10 Norte 19 Nordeste 0 -- -- 40
2019-08-17 09:00:00 24.4 10 Norte 18 Norte 0 -- -- 47
2019-08-17 08:00:00 23.1 10 Norte 23 Norte 0 -- -- 50
2019-08-17 07:00:00 23.6 16 Norte 24 Norte 0 -- -- 48
2019-08-17 06:00:00 23.7 13 Norte 28 Norte 0 -- -- 46
2019-08-17 05:00:00 24.4 15 Norte 27 Norte 0 -- -- 42
2019-08-17 04:00:00 25.2 15 Norte 32 Norte 0 -- -- 39
2019-08-17 03:00:00 26.1 17 Norte 29 Nordeste 0 -- -- 38
2019-08-17 02:00:00 26.1 9 Norte 23 Norte 0 -- -- 39
2019-08-17 01:00:00 27.7 11 Nordeste 18 Norte 0 -- -- 37
2019-08-17 00:00:00 28.6 9 Norte 18 Nordeste 0 -- -- 38
2019-08-16 23:00:00 29 6 Norte 14 Norte 0 -- -- 36
2019-08-16 22:00:00 30.6 6 Norte 16 Norte 0 -- -- 26
2019-08-16 21:00:00 34.3 11 Noroeste 24 Oeste 0 -- -- 20
2019-08-16 20:00:00 36.7 10 Sudoeste 23 Sudeste 0 -- -- 23
2019-08-16 19:00:00 36.8 15 Sudoeste 27 Sur 0 -- -- 23
2019-08-16 18:00:00 37.1 10 Sudoeste 26 Sudoeste 0 -- -- 22
2019-08-16 17:00:00 36.9 13 Sudoeste 27 Sudoeste 0 -- -- 23
2019-08-16 16:00:00 36.6 14 Sur 24 Sur 0 -- -- 25
2019-08-16 15:00:00 36.1 11 Sudoeste 28 Sudoeste 0 -- -- 25
2019-08-16 14:00:00 35.2 5 Este 18 Sudoeste 0 -- -- 27
2019-08-16 13:00:00 33.5 8 Sudoeste 18 Oeste 0 -- -- 30
2019-08-16 12:00:00 31.5 4 Nordeste 10 Norte 0 -- -- 34
2019-08-16 11:00:00 29 7 Norte 15 Norte 0 -- -- 40
2019-08-16 10:00:00 27 9 Nordeste 14 Nordeste 0 -- -- 45
2019-08-16 09:00:00 25.1 6 Nordeste 17 Norte 0 -- -- 50
2019-08-16 08:00:00 23.8 9 Nordeste 18 Norte 0 -- -- 52
2019-08-16 07:00:00 24.1 10 Nordeste 19 Nordeste 0 -- -- 51
2019-08-16 06:00:00 24.4 9 Norte 22 Norte 0 -- -- 51
2019-08-16 05:00:00 25.2 13 Norte 23 Nordeste 0 -- -- 48
2019-08-16 04:00:00 25.8 12 Norte 20 Norte 0 -- -- 47
2019-08-16 03:00:00 26.4 14 Norte 24 Norte 0 -- -- 45
2019-08-16 02:00:00 27.5 12 Nordeste 26 Norte 0 -- -- 43
2019-08-16 01:00:00 28.8 17 Norte 24 Norte 0 -- -- 39
2019-08-16 00:00:00 28.1 7 Norte 14 Nordeste 0 -- -- 33
2019-08-15 23:00:00 29.2 8 Nordeste 11 Nordeste 0 -- -- 31
2019-08-15 22:00:00 31 7 Norte 18 Noroeste 0 -- -- 27
2019-08-15 21:00:00 34.4 10 Norte 25 Sudoeste 0 -- -- 21
2019-08-15 20:00:00 37.1 12 Sudoeste 19 Sudoeste 0 -- -- 20
2019-08-15 19:00:00 37.9 7 Sur 15 Oeste 0 -- -- 20
2019-08-15 18:00:00 38 8 Este 19 Este 0 -- -- 18
2019-08-15 17:00:00 37.7 9 Nordeste 24 Nordeste 0 -- -- 19
2019-08-15 16:00:00 37.4 9 Este 21 Nordeste 0 -- -- 19
2019-08-15 15:00:00 36.1 4 Este 19 Nordeste 0 -- -- 20
2019-08-15 14:00:00 34.6 5 Este 19 Nordeste 0 -- -- 27
2019-08-15 13:00:00 33.3 7 Este 23 Nordeste 0 -- -- 31
2019-08-15 12:00:00 31.1 12 Norte 26 Norte 0 -- -- 36
2019-08-15 11:00:00 28.8 18 Norte 28 Norte 0 -- -- 41
2019-08-15 10:00:00 26.5 15 Norte 30 Nordeste 0 -- -- 47
2019-08-15 09:00:00 24.2 18 Norte 29 Norte 0 -- -- 56
2019-08-15 08:00:00 23 18 Norte 31 Norte 0 -- -- 59
2019-08-15 07:00:00 23.3 15 Norte 29 Norte 0 -- -- 58
2019-08-15 06:00:00 23.8 17 Norte 27 Norte 0 -- -- 56
2019-08-15 05:00:00 24.9 17 Norte 31 Norte 0 -- -- 53
2019-08-15 04:00:00 25.3 14 Nordeste 24 Norte 0 -- -- 52
2019-08-15 03:00:00 26.1 10 Nordeste 20 Norte 0 -- -- 50
2019-08-15 02:00:00 26.5 10 Nordeste 22 Nordeste 0 -- -- 47
2019-08-15 01:00:00 26.9 12 Nordeste 18 Nordeste 0 -- -- 45
2019-08-15 00:00:00 25.7 8 Norte 12 Norte 0 -- -- 42
2019-08-14 23:00:00 27.2 6 Nordeste 10 Este 0 -- -- 37
2019-08-14 22:00:00 29.1 6 Noroeste 13 Noroeste 0 -- -- 32
2019-08-14 21:00:00 32.6 9 Noroeste 18 Noroeste 0 -- -- 27
2019-08-14 20:00:00 34.9 10 Sur 19 Sudoeste 0 -- -- 21
2019-08-14 19:00:00 35.6 10 Sudoeste 21 Sudoeste 0 -- -- 19
2019-08-14 18:00:00 35.4 10 Sur 24 Sudoeste 0 -- -- 19
2019-08-14 17:00:00 35.3 9 Sudoeste 27 Sudoeste 0 -- -- 18
2019-08-14 16:00:00 34.5 5 Noroeste 18 Noroeste 0 -- -- 19
2019-08-14 15:00:00 33.9 9 Sur 21 Sudeste 0 -- -- 19
2019-08-14 14:00:00 32.4 6 Norte 18 Nordeste 0 -- -- 19
2019-08-14 13:00:00 31.4 6 Nordeste 17 Norte 0 -- -- 20
2019-08-14 12:00:00 29.4 7 Norte 13 Nordeste 0 -- -- 21
2019-08-14 11:00:00 27.3 9 Nordeste 20 Norte 0 -- -- 25
2019-08-14 10:00:00 24.1 11 Norte 19 Norte 0 -- -- 30
2019-08-14 09:00:00 21 9 Nordeste 22 Norte 0 -- -- 37
2019-08-14 08:00:00 18 8 Nordeste 17 Norte 0 -- -- 46
2019-08-14 07:00:00 19.3 7 Nordeste 16 Norte 0 -- -- 39
2019-08-14 06:00:00 19.5 7 Este 14 Nordeste 0 -- -- 37
2019-08-14 05:00:00 19.6 8 Nordeste 15 Nordeste 0 -- -- 41
2019-08-14 04:00:00 21.4 9 Nordeste 21 Norte 0 -- -- 34
2019-08-14 03:00:00 21.6 10 Norte 19 Norte 0 -- -- 32
2019-08-14 02:00:00 22.4 13 Norte 19 Nordeste 0 -- -- 32
2019-08-14 01:00:00 23.6 14 Norte 22 Nordeste 0 -- -- 29
2019-08-14 00:00:00 24.3 14 Norte 22 Norte 0 -- -- 28
2019-08-13 23:00:00 24.3 10 Norte 14 Nordeste 0 -- -- 29
2019-08-13 22:00:00 26.6 7 Norte 17 Nordeste 0 -- -- 25
2019-08-13 21:00:00 30.6 6 Oeste 17 Sudoeste 0 -- -- 22
2019-08-13 20:00:00 31.7 9 Sur 21 Sur 0 -- -- 21
2019-08-13 19:00:00 32.7 8 Sudoeste 19 Sudoeste 0 -- -- 19
2019-08-13 18:00:00 32.5 4 Sudoeste 15 Sur 0 -- -- 19
2019-08-13 17:00:00 32.5 10 Sudeste 22 Este 0 -- -- 17
2019-08-13 16:00:00 31.1 9 Norte 17 Este 0 -- -- 17
2019-08-13 15:00:00 30.1 7 Norte 18 Este 0 -- -- 19
2019-08-13 14:00:00 28.7 6 Nordeste 18 Noroeste 0 -- -- 23
2019-08-13 13:00:00 27.2 10 Norte 18 Nordeste 0 -- -- 27
2019-08-13 12:00:00 24.8 9 Nordeste 21 Norte 0 -- -- 34
2019-08-13 11:00:00 22.6 10 Norte 23 Nordeste 0 -- -- 38
2019-08-13 10:00:00 20.2 14 Norte 25 Norte 0 -- -- 43
2019-08-13 09:00:00 18.2 14 Norte 26 Norte 0 -- -- 48
2019-08-13 08:00:00 16.8 13 Norte 24 Nordeste 0 -- -- 52
2019-08-13 07:00:00 17.3 13 Norte 21 Norte 0 -- -- 48
2019-08-13 06:00:00 18.1 10 Nordeste 22 Norte 0 -- -- 44
2019-08-13 05:00:00 18.9 11 Nordeste 20 Norte 0 -- -- 40
2019-08-13 04:00:00 19.7 14 Norte 33 Norte 0 -- -- 38
2019-08-13 03:00:00 20.1 16 Norte 26 Nordeste 0 -- -- 35
2019-08-13 02:00:00 20.8 14 Norte 21 Norte 0 -- -- 33
2019-08-13 01:00:00 21.9 13 Nordeste 24 Nordeste 0 -- -- 30
2019-08-13 00:00:00 22.8 15 Norte 31 Norte 0 -- -- 28
2019-08-12 23:00:00 23.5 14 Norte 26 Norte 0 -- -- 26
2019-08-12 22:00:00 24.4 15 Norte 25 Nordeste 0 -- -- 26
2019-08-12 21:00:00 25.2 15 Nordeste 31 Norte 0 -- -- 23
2019-08-12 20:00:00 25.8 17 Norte 33 Norte 0 -- -- 23
2019-08-12 19:00:00 27.7 18 Norte 33 Nordeste 0 -- -- 21
2019-08-12 18:00:00 28 18 Norte 33 Norte 0 -- -- 21
2019-08-12 17:00:00 28 21 Norte 39 Norte 0 -- -- 22
2019-08-12 16:00:00 27.4 22 Norte 37 Norte 0 -- -- 25
2019-08-12 15:00:00 26.2 23 Norte 39 Norte 0 -- -- 29
2019-08-12 14:00:00 24.8 24 Norte 45 Norte 0 -- -- 32
2019-08-12 13:00:00 23.7 22 Norte 44 Norte 0 -- -- 35
2019-08-12 12:00:00 22.3 18 Norte 36 Norte 0 -- -- 40
2019-08-12 11:00:00 20.3 23 Norte 39 Nordeste 0 -- -- 45
2019-08-12 10:00:00 18.4 21 Norte 36 Norte 0 -- -- 50
2019-08-12 09:00:00 16.6 21 Norte 38 Nordeste 0 -- -- 55
2019-08-12 08:00:00 15.5 25 Norte 42 Norte 0 -- -- 56
2019-08-12 07:00:00 15.6 19 Norte 35 Norte 0 -- -- 57
2019-08-12 06:00:00 16.3 17 Norte 35 Norte 0 -- -- 54
2019-08-12 05:00:00 17.1 24 Norte 36 Norte 0 -- -- 50
2019-08-12 04:00:00 17.3 19 Norte 35 Nordeste 0 -- -- 52
2019-08-12 03:00:00 17.4 13 Norte 24 Norte 0 -- -- 54
2019-08-12 02:00:00 18.1 14 Norte 27 Norte 0 -- -- 52
2019-08-12 01:00:00 19.2 14 Norte 32 Norte 0 -- -- 49
2019-08-12 00:00:00 20.1 13 Norte 29 Norte 0 -- -- 45
2019-08-11 23:00:00 20 5 Norte 17 Noroeste 0 -- -- 39
2019-08-11 22:00:00 21.6 10 Noroeste 21 Noroeste 0 -- -- 32
2019-08-11 21:00:00 23.9 12 Noroeste 30 Noroeste 0 -- -- 29
2019-08-11 20:00:00 25.9 19 Noroeste 30 Noroeste 0 -- -- 26
2019-08-11 19:00:00 26.8 14 Noroeste 54 Noroeste 0 -- -- 25
2019-08-11 18:00:00 27.3 14 Noroeste 32 Noroeste 0 -- -- 25
2019-08-11 17:00:00 27 6 Norte 25 Norte 0 -- -- 25
2019-08-11 16:00:00 26.3 14 Noroeste 33 Noroeste 0 -- -- 28
2019-08-11 15:00:00 26.1 15 Noroeste 29 Oeste 0 -- -- 30
2019-08-11 14:00:00 24.9 13 Noroeste 23 Noroeste 0 -- -- 41
2019-08-11 13:00:00 23.9 7 Noroeste 22 Nordeste 0 -- -- 45
2019-08-11 12:00:00 22.7 12 Norte 24 Norte 0 -- -- 49
2019-08-11 11:00:00 21.4 17 Norte 27 Nordeste 0 -- -- 55
2019-08-11 10:00:00 20.3 15 Norte 22 Nordeste 0 -- -- 58
2019-08-11 09:00:00 18.7 10 Norte 21 Norte 0 -- -- 65
2019-08-11 08:00:00 16.7 6 Nordeste 10 Norte 0 -- -- 72
2019-08-11 07:00:00 17.3 3 Sudoeste 12 Noroeste 0 -- -- 66
2019-08-11 06:00:00 18.8 12 Noroeste 28 Noroeste 0 -- -- 61
2019-08-11 05:00:00 20.3 14 Nordeste 31 Nordeste 0 -- -- 58
2019-08-11 04:00:00 21.1 12 Nordeste 22 Nordeste 0 -- -- 55
2019-08-11 03:00:00 21.4 5 Noroeste 20 Nordeste 0 -- -- 53
2019-08-11 02:00:00 22.4 7 Norte 13 Nordeste 0 -- -- 48
2019-08-11 01:00:00 22.9 6 Norte 12 Norte 0 -- -- 45
2019-08-11 00:00:00 23.2 6 Norte 13 Noroeste 0 -- -- 43
2019-08-10 23:00:00 23.9 9 Noroeste 13 Noroeste 0 -- -- 42
2019-08-10 22:00:00 26.5 5 Sur 10 Sudoeste 0 -- -- 38
2019-08-10 21:00:00 28.3 8 Sudoeste 16 Sudoeste 0 -- -- 33
2019-08-10 20:00:00 28.5 9 Sur 20 Sudoeste 0 -- -- 32
2019-08-10 19:00:00 29.4 10 Sur 22 Sudoeste 0 -- -- 31
2019-08-10 18:00:00 29.8 11 Sur 24 Sur 0 -- -- 31
2019-08-10 17:00:00 29.5 12 Sudoeste 27 Sudoeste 0 -- -- 33
2019-08-10 16:00:00 28.7 15 Sudoeste 23 Sur 0 -- -- 37
2019-08-10 15:00:00 28.6 6 Oeste 13 Oeste 0 -- -- 32
2019-08-10 14:00:00 27.2 4 Norte 17 Oeste 0 -- -- 34
2019-08-10 13:00:00 25.2 10 Noroeste 21 Norte 0 -- -- 43
2019-08-10 12:00:00 23.4 15 Norte 27 Norte 0 -- -- 54
2019-08-10 11:00:00 21.7 18 Norte 28 Norte 0 -- -- 58
2019-08-10 10:00:00 19.8 14 Norte 25 Norte 0 -- -- 65
2019-08-10 09:00:00 18.1 12 Norte 23 Norte 0 -- -- 74
2019-08-10 08:00:00 17 14 Norte 23 Norte 0 -- -- 77
2019-08-10 07:00:00 16.1 12 Norte 19 Norte 0 -- -- 82
2019-08-10 06:00:00 16.1 10 Norte 20 Norte 0 -- -- 86
2019-08-10 05:00:00 15.8 5 Nordeste 14 Norte 0 -- -- 89
2019-08-10 04:00:00 16.5 6 Nordeste 11 Norte 0 -- -- 88
2019-08-10 03:00:00 16.6 7 Norte 14 Nordeste 0 -- -- 90
2019-08-10 02:00:00 16.7 7 Nordeste 11 Nordeste 0 -- -- 92
2019-08-10 01:00:00 17 6 Norte 13 Norte 0 -- -- 91
2019-08-10 00:00:00 16.7 6 Norte 10 Norte 0 -- -- 91
2019-08-09 23:00:00 17 4 Norte 6 Nordeste 0 -- -- 92
2019-08-09 22:00:00 18.7 2 Oeste 5 Oeste 0 -- -- 85
2019-08-09 21:00:00 19.9 4 Noroeste 10 Oeste 0 -- -- 78
2019-08-09 20:00:00 20.3 2 Noroeste 8 Nordeste 0 -- -- 78
2019-08-09 19:00:00 19.2 3 Nordeste 13 Este 0 -- -- 88
2019-08-09 18:00:00 17.7 8 Este 17 Noroeste 2.6 -- -- 94
2019-08-09 17:00:00 16.8 12 Noroeste 32 Noroeste 0.4 -- -- 90
2019-08-09 16:00:00 20.8 13 Sudoeste 30 Sudoeste 0.6 -- -- 88
2019-08-09 15:00:00 20.9 18 Sudoeste 30 Sudoeste 0.8 -- -- 86
2019-08-09 14:00:00 22.1 10 Sudoeste 22 Oeste 0.2 -- -- 87
2019-08-09 13:00:00 21.9 14 Oeste 26 Sur 0.8 -- -- 86
2019-08-09 12:00:00 22 13 Sur 22 Sur 0.4 -- -- 90
2019-08-09 11:00:00 21.7 14 Sur 25 Sur 0 -- -- 87
2019-08-09 10:00:00 21.4 9 Sudoeste 27 Sur 0.2 -- -- 89
2019-08-09 09:00:00 21.6 15 Sudoeste 29 Sur 0 -- -- 83
2019-08-09 08:00:00 21.6 12 Sur 23 Sudoeste 0 -- -- 81
2019-08-09 07:00:00 21.4 9 Sur 18 Sur 0 -- -- 80
2019-08-09 06:00:00 21.2 10 Sur 19 Sudeste 0 -- -- 80
2019-08-09 05:00:00 21.3 7 Sur 14 Sudoeste 0 -- -- 78
2019-08-09 04:00:00 21.6 7 Sudoeste 13 Sudoeste 0 -- -- 76
2019-08-09 03:00:00 22.4 6 Sur 14 Sudoeste 0 -- -- 71
2019-08-09 02:00:00 22.8 5 Sur 14 Sur 0 -- -- 68
2019-08-09 01:00:00 24 6 Sudoeste 13 Sudoeste 0 -- -- 60
2019-08-09 00:00:00 25 7 Sudoeste 12 Sudoeste 0 -- -- 56
2019-08-08 23:00:00 26.6 6 Sudoeste 16 Oeste 0 -- -- 52
2019-08-08 22:00:00 28 10 Oeste 28 Oeste 0 -- -- 49
2019-08-08 21:00:00 30.1 15 Oeste 34 Sudoeste 0 -- -- 44
2019-08-08 20:00:00 31.7 14 Oeste 37 Sudoeste 0 -- -- 42
2019-08-08 19:00:00 31.7 23 Sudoeste 38 Sur 0 -- -- 41
2019-08-08 18:00:00 31.9 21 Sudoeste 42 Sudoeste 0 -- -- 41
2019-08-08 17:00:00 32.8 20 Sudoeste 40 Sudoeste 0 -- -- 36
2019-08-08 16:00:00 32.1 19 Sudoeste 36 Sudoeste 0 -- -- 37
2019-08-08 15:00:00 30.7 16 Sudoeste 37 Sudoeste 0 -- -- 43
2019-08-08 14:00:00 30 19 Sudoeste 35 Sudoeste 0 -- -- 45
2019-08-08 13:00:00 28.7 15 Sudoeste 28 Sudoeste 0 -- -- 50
2019-08-08 12:00:00 27 9 Sudoeste 17 Sudoeste 0 -- -- 57
2019-08-08 11:00:00 25.5 8 Sur 18 Sudoeste 0 -- -- 59
2019-08-08 10:00:00 22.8 6 Sudoeste 13 Sudoeste 0 -- -- 62
2019-08-08 09:00:00 20.9 4 Sudoeste 6 Sudoeste 0 -- -- 68
2019-08-08 08:00:00 19.8 4 Sudoeste 6 Sudoeste 0 -- -- 71
2019-08-08 07:00:00 19.3 2 Este 5 Sudoeste 0 -- -- 74
2019-08-08 06:00:00 19 2 Sudoeste 4 Sudoeste 0 -- -- 75
2019-08-08 05:00:00 18.7 3 Oeste 5 Oeste 0 -- -- 77
2019-08-08 04:00:00 19.1 2 Sudeste 5 Oeste 0 -- -- 74
2019-08-08 03:00:00 20.5 3 Sudoeste 4 Sudoeste 0 -- -- 68
2019-08-08 02:00:00 20.2 2 Este 4 Este 0 -- -- 71
2019-08-08 01:00:00 20 3 Nordeste 4 Norte 0 -- -- 71
2019-08-08 00:00:00 21.5 2 Sudoeste -- -- 0 -- -- 65
2019-08-07 23:00:00 22.3 3 Sur 5 Sur 0 -- -- 63
2019-08-07 22:00:00 23.9 3 Sur 8 Sudeste 0 -- -- 58
2019-08-07 21:00:00 25.7 5 Sur 14 Sudoeste 0 -- -- 53
2019-08-07 20:00:00 26.9 12 Sudoeste 19 Sudoeste 0 -- -- 49
2019-08-07 19:00:00 26.4 3 Oeste 14 Sudoeste 0 -- -- 47
2019-08-07 18:00:00 25.2 7 Sudoeste 16 Sudoeste 0 -- -- 52
2019-08-07 17:00:00 24.7 7 Sudoeste 13 Sudoeste 0 -- -- 53
2019-08-07 16:00:00 23.4 4 Sur 18 Sur 0 -- -- 55
2019-08-07 15:00:00 22.2 11 Sur 23 Sur 0 -- -- 69
2019-08-07 14:00:00 22.1 12 Sur 21 Sur 0 -- -- 75
2019-08-07 13:00:00 22.4 10 Sur 15 Sudoeste 0 -- -- 70
2019-08-07 12:00:00 22.4 9 Sur 18 Sudoeste 0 -- -- 68
2019-08-07 11:00:00 22.7 8 Sudoeste 13 Sudoeste 0 -- -- 65
2019-08-07 10:00:00 21.8 5 Sudoeste 9 Sudoeste 0 -- -- 68
2019-08-07 09:00:00 20.9 5 Sur 9 Sur 0 -- -- 72
2019-08-07 08:00:00 20.6 3 Sur 9 Nordeste 0 -- -- 72
2019-08-07 07:00:00 20.7 5 Sudeste 11 Sur 0 -- -- 70
2019-08-07 06:00:00 21.4 8 Sudoeste 13 Sur 0 -- -- 67
2019-08-07 05:00:00 22.2 4 Sur 17 Sudoeste 0 -- -- 63
2019-08-07 04:00:00 23.1 8 Sudoeste 13 Sudoeste 0 -- -- 59
2019-08-07 03:00:00 23.8 5 Sur 9 Sur 0 -- -- 57
2019-08-07 02:00:00 24.5 5 Sudoeste 8 Sudoeste 0 -- -- 53
2019-08-07 01:00:00 25.1 3 Norte 7 Sudoeste 0 -- -- 52
2019-08-07 00:00:00 26.5 3 Norte 13 Norte 0 -- -- 52
2019-08-06 23:00:00 27.7 2 Este 13 Oeste 0 -- -- 40
2019-08-06 22:00:00 29.5 6 Oeste 22 Oeste 0 -- -- 34
2019-08-06 21:00:00 31.2 13 Oeste 25 Sudoeste 0 -- -- 30
2019-08-06 20:00:00 33.4 13 Sudoeste 27 Sudoeste 0 -- -- 28
2019-08-06 19:00:00 34 17 Sudoeste 28 Sudoeste 0 -- -- 27
2019-08-06 18:00:00 34.6 15 Sur 31 Sur 0 -- -- 25
2019-08-06 17:00:00 33.9 13 Sudoeste 30 Sur 0 -- -- 25
2019-08-06 16:00:00 33.7 17 Sudoeste 30 Sur 0 -- -- 27
2019-08-06 15:00:00 32.9 14 Sudoeste 29 Sudoeste 0 -- -- 28
2019-08-06 14:00:00 32 14 Sudoeste 25 Sudoeste 0 -- -- 32
2019-08-06 13:00:00 30.6 14 Sudoeste 27 Sudoeste 0 -- -- 35
2019-08-06 12:00:00 29.3 14 Sudoeste 21 Sudoeste 0 -- -- 37
2019-08-06 11:00:00 28.1 5 Sur 11 Sudoeste 0 -- -- 39
2019-08-06 10:00:00 24.7 6 Sur 12 Sur 0 -- -- 49
2019-08-06 09:00:00 21.8 5 Sudoeste 11 Norte 0 -- -- 57
2019-08-06 08:00:00 21.6 7 Nordeste 14 Nordeste 0 -- -- 56
2019-08-06 07:00:00 22.4 8 Nordeste 25 Norte 0 -- -- 53
2019-08-06 06:00:00 23 10 Norte 20 Norte 0 -- -- 49
2019-08-06 05:00:00 23.5 6 Norte 16 Norte 0 -- -- 46
2019-08-06 04:00:00 24.3 12 Norte 23 Norte 0 -- -- 46
2019-08-06 03:00:00 25.1 12 Norte 21 Norte 0 -- -- 46
2019-08-06 02:00:00 25.3 8 Nordeste 15 Norte 0 -- -- 48
2019-08-06 01:00:00 23.1 0 Calma 9 Este 0 -- -- 33
2019-08-06 00:00:00 25.3 4 Oeste 10 Este 0 -- -- 31
2019-08-05 23:00:00 25.8 6 Norte 9 Norte 0 -- -- 27
2019-08-05 22:00:00 29.8 4 Sur 9 Sudoeste 0 -- -- 23
2019-08-05 21:00:00 33.7 8 Sudoeste 15 Sur 0 -- -- 18
2019-08-05 20:00:00 35.2 9 Sudoeste 17 Sudoeste 0 -- -- 16
2019-08-05 19:00:00 35.7 8 Sur 18 Sur 0 -- -- 12
2019-08-05 18:00:00 35.6 10 Sur 26 Sudoeste 0 -- -- 11
2019-08-05 17:00:00 35.2 12 Sudoeste 29 Sudoeste 0 -- -- 12
2019-08-05 16:00:00 34.7 12 Sudoeste 24 Sudoeste 0 -- -- 13
2019-08-05 15:00:00 33.4 13 Sudoeste 23 Sudoeste 0 -- -- 21
2019-08-05 14:00:00 32.3 12 Sur 26 Sudoeste 0 -- -- 21
2019-08-05 13:00:00 30.7 13 Sudoeste 20 Sudoeste 0 -- -- 27
2019-08-05 12:00:00 28.6 7 Oeste 14 Sur 0 -- -- 39
2019-08-05 11:00:00 26.1 4 Sur 9 Sudoeste 0 -- -- 46
2019-08-05 10:00:00 22.6 2 Nordeste 6 Sudoeste 0 -- -- 57
2019-08-05 09:00:00 18.6 4 Sur 5 Sudoeste 0 -- -- 68
2019-08-05 08:00:00 15.9 0 Calma 5 Sur 0 -- -- 76
2019-08-05 07:00:00 15.9 4 Sudeste 5 Sudeste 0 -- -- 71
2019-08-05 06:00:00 17.2 0 Calma 9 Sur 0 -- -- 63
2019-08-05 05:00:00 18.5 3 Sur 6 Sur 0 -- -- 62
2019-08-05 04:00:00 18.8 2 Sudeste 4 Este 0 -- -- 54
2019-08-05 03:00:00 20.1 4 Este 6 Este 0 -- -- 50
2019-08-05 02:00:00 21.2 3 Este 11 Sudeste 0 -- -- 46
2019-08-05 01:00:00 24.1 5 Sudoeste 13 Sudoeste 0 -- -- 41
2019-08-05 00:00:00 25.6 9 Sudoeste 15 Sudoeste 0 -- -- 37
2019-08-04 23:00:00 27.3 7 Sudoeste 13 Oeste 0 -- -- 31
2019-08-04 22:00:00 30.2 8 Oeste 19 Oeste 0 -- -- 25
2019-08-04 21:00:00 33.5 13 Sudoeste 32 Oeste 0 -- -- 23
2019-08-04 20:00:00 34.7 15 Sudoeste 29 Sudoeste 0 -- -- 22
2019-08-04 19:00:00 35.2 14 Sudoeste 29 Sudoeste 0 -- -- 22
2019-08-04 18:00:00 35.5 15 Sudoeste 28 Sur 0 -- -- 22
2019-08-04 17:00:00 35.2 11 Sur 29 Sudoeste 0 -- -- 22
2019-08-04 16:00:00 34.7 16 Sudoeste 29 Sudoeste 0 -- -- 27
2019-08-04 15:00:00 33.5 19 Sur 32 Sur 0 -- -- 29
2019-08-04 14:00:00 32.7 12 Sur 23 Sudoeste 0 -- -- 32
2019-08-04 13:00:00 31.1 9 Sudoeste 19 Sudoeste 0 -- -- 36
2019-08-04 12:00:00 29.3 5 Sudoeste 17 Sudoeste 0 -- -- 39
2019-08-04 11:00:00 27.4 4 Sudoeste 15 Sudoeste 0 -- -- 44
2019-08-04 10:00:00 25.6 9 Sudoeste 14 Sudoeste 0 -- -- 48
2019-08-04 09:00:00 24.2 5 Oeste 13 Noroeste 0 -- -- 51
2019-08-04 08:00:00 22.2 4 Oeste 20 Norte 0 -- -- 56
2019-08-04 07:00:00 23.1 13 Norte 22 Nordeste 0 -- -- 55
2019-08-04 06:00:00 23.3 12 Norte 26 Norte 0 -- -- 53
2019-08-04 05:00:00 23.9 14 Norte 27 Norte 0 -- -- 51
2019-08-04 04:00:00 24.1 12 Norte 18 Norte 0 -- -- 51
2019-08-04 03:00:00 24 6 Norte 20 Norte 0 -- -- 49
2019-08-04 02:00:00 25.5 11 Norte 19 Nordeste 0 -- -- 47
2019-08-04 01:00:00 25.5 6 Nordeste 10 Nordeste 0 -- -- 45
2019-08-04 00:00:00 26.4 0 Calma 9 Norte 0 -- -- 34
2019-08-03 23:00:00 28.1 7 Norte 18 Noroeste 0 -- -- 34
2019-08-03 22:00:00 30.7 3 Sur 8 Sudoeste 0 -- -- 22
2019-08-03 21:00:00 34.3 6 Sudoeste 15 Sur 0 -- -- 17
2019-08-03 20:00:00 35.7 9 Sur 21 Sudeste 0 -- -- 15
2019-08-03 19:00:00 36.1 8 Sudoeste 24 Sur 0 -- -- 15
2019-08-03 18:00:00 36.3 12 Sur 30 Sudoeste 0 -- -- 17
2019-08-03 17:00:00 35.4 15 Sur 28 Sur 0 -- -- 18
2019-08-03 16:00:00 35.3 15 Sudoeste 29 Sudoeste 0 -- -- 24
2019-08-03 15:00:00 34.5 10 Sudoeste 25 Sur 0 -- -- 17
2019-08-03 14:00:00 33.5 13 Sur 23 Sur 0 -- -- 25
2019-08-03 13:00:00 32.2 9 Sudoeste 21 Oeste 0 -- -- 28
2019-08-03 12:00:00 30.2 6 Sur 21 Sur 0 -- -- 35
2019-08-03 11:00:00 28.1 9 Sur 19 Sur 0 -- -- 39
2019-08-03 10:00:00 25.6 7 Norte 13 Noroeste 0 -- -- 41
2019-08-03 09:00:00 21 4 Sur 6 Sur 0 -- -- 51
2019-08-03 08:00:00 20 4 Norte 14 Norte 0 -- -- 54
2019-08-03 07:00:00 18.8 6 Nordeste 9 Nordeste 0 -- -- 55
2019-08-03 06:00:00 20.7 3 Noroeste 6 Nordeste 0 -- -- 49
2019-08-03 05:00:00 22.7 7 Norte 13 Norte 0 -- -- 43
2019-08-03 04:00:00 23 8 Norte 12 Norte 0 -- -- 45
2019-08-03 03:00:00 23.1 2 Oeste 14 Nordeste 0 -- -- 42
2019-08-03 02:00:00 23 6 Nordeste 10 Nordeste 0 -- -- 38
2019-08-03 01:00:00 22.6 6 Norte 9 Noroeste 0 -- -- 35
2019-08-03 00:00:00 23.3 5 Norte 6 Norte 0 -- -- 33
2019-08-02 23:00:00 26 4 Nordeste 6 Noroeste 0 -- -- 24
2019-08-02 22:00:00 30 4 Sudoeste 8 Oeste 0 -- -- 20
2019-08-02 21:00:00 33.9 7 Sudoeste 17 Sudoeste 0 -- -- 16
2019-08-02 20:00:00 35.1 12 Sudoeste 22 Sudoeste 0 -- -- 15
2019-08-02 19:00:00 35.8 11 Sudoeste 21 Sudoeste 0 -- -- 15
2019-08-02 18:00:00 36 3 Sudeste 18 Oeste 0 -- -- 14
2019-08-02 17:00:00 35.7 7 Sur 22 Sudoeste 0 -- -- 16
2019-08-02 16:00:00 34.8 6 Sudoeste 24 Sudoeste 0 -- -- 18
2019-08-02 15:00:00 33.9 11 Sudoeste 28 Sudoeste 0 -- -- 22
2019-08-02 14:00:00 32.3 9 Sudoeste 23 Sudoeste 0 -- -- 25
2019-08-02 13:00:00 30.7 9 Sudoeste 23 Sudoeste 0 -- -- 30
2019-08-02 12:00:00 28.6 11 Sudoeste 21 Sudoeste 0 -- -- 33
2019-08-02 11:00:00 27 7 Sudoeste 11 Sudoeste 0 -- -- 37
2019-08-02 10:00:00 23.4 4 Sudoeste 9 Sur 0 -- -- 46
2019-08-02 09:00:00 19.7 7 Sudoeste 10 Sudoeste 0 -- -- 55
2019-08-02 08:00:00 19.8 4 Este 9 Nordeste 0 -- -- 56
2019-08-02 07:00:00 21.3 6 Nordeste 21 Norte 0 -- -- 50
2019-08-02 06:00:00 22.5 13 Norte 22 Norte 0 -- -- 45
2019-08-02 05:00:00 23 13 Norte 21 Norte 0 -- -- 43
2019-08-02 04:00:00 23.2 10 Norte 21 Norte 0 -- -- 42
2019-08-02 03:00:00 23.5 12 Norte 20 Norte 0 -- -- 43
2019-08-02 02:00:00 24.6 10 Nordeste 19 Nordeste 0 -- -- 41
2019-08-02 01:00:00 23.1 7 Norte 11 Norte 0 -- -- 43
2019-08-02 00:00:00 24.8 4 Norte 10 Oeste 0 -- -- 36
2019-08-01 23:00:00 27.4 7 Oeste 19 Oeste 0 -- -- 31
2019-08-01 22:00:00 30 9 Sudoeste 21 Sudoeste 0 -- -- 25
2019-08-01 21:00:00 32.7 13 Sudoeste 28 Sudoeste 0 -- -- 20
2019-08-01 20:00:00 33.9 16 Sudoeste 31 Sudoeste 0 -- -- 20
2019-08-01 19:00:00 34.5 16 Sur 29 Sudoeste 0 -- -- 20
2019-08-01 18:00:00 34.8 12 Sur 32 Sudoeste 0 -- -- 21
2019-08-01 17:00:00 34.6 15 Sur 29 Sudoeste 0 -- -- 21
2019-08-01 16:00:00 34.2 13 Sudoeste 24 Sudeste 0 -- -- 22
2019-08-01 15:00:00 33.5 10 Sudoeste 24 Sur 0 -- -- 25
2019-08-01 14:00:00 32.6 7 Oeste 19 Sur 0 -- -- 24
2019-08-01 13:00:00 30.9 8 Sur 17 Oeste 0 -- -- 29
2019-08-01 12:00:00 28.5 6 Noroeste 14 Noroeste 0 -- -- 32
2019-08-01 11:00:00 27.6 5 Nordeste 13 Norte 0 -- -- 33
2019-08-01 10:00:00 25 8 Norte 14 Nordeste 0 -- -- 36
2019-08-01 09:00:00 22.6 6 Nordeste 13 Nordeste 0 -- -- 43
2019-08-01 08:00:00 19.5 6 Nordeste 12 Nordeste 0 -- -- 55
2019-08-01 07:00:00 19.9 9 Nordeste 12 Nordeste 0 -- -- 49
2019-08-01 06:00:00 21.1 7 Nordeste 14 Nordeste 0 -- -- 47
2019-08-01 05:00:00 21.3 3 Norte 9 Nordeste 0 -- -- 43
2019-08-01 04:00:00 22.9 3 Norte 13 Norte 0 -- -- 38
2019-08-01 03:00:00 24.2 6 Norte 19 Nordeste 0 -- -- 36
2019-08-01 02:00:00 26 11 Norte 25 Norte 0 -- -- 34
2019-08-01 01:00:00 26.9 14 Norte 24 Norte 0 -- -- 32
2019-08-01 00:00:00 27.5 9 Nordeste 19 Nordeste 0 -- -- 31
2019-07-31 23:00:00 27.9 7 Nordeste 12 Nordeste 0 -- -- 30
2019-07-31 22:00:00 28.6 8 Noroeste 17 Noroeste 0 -- -- 24
2019-07-31 21:00:00 31.1 6 Noroeste 9 Oeste 0 -- -- 19
2019-07-31 20:00:00 33.5 8 Sudoeste 21 Sudoeste 0 -- -- 15
2019-07-31 19:00:00 34.2 9 Sudoeste 23 Sudoeste 0 -- -- 14
2019-07-31 18:00:00 35.2 9 Oeste 29 Noroeste 0 -- -- 18
2019-07-31 17:00:00 35 8 Sudoeste 27 Sur 0 -- -- 22
2019-07-31 16:00:00 34 14 Sur 30 Sur 0 -- -- 24
2019-07-31 15:00:00 33.8 14 Sudeste 35 Sudeste 0 -- -- 25
2019-07-31 14:00:00 31.4 8 Noroeste 17 Este 0 -- -- 28
2019-07-31 13:00:00 30 6 Norte 15 Oeste 0 -- -- 31
2019-07-31 12:00:00 27.6 6 Norte 18 Norte 0 -- -- 31
2019-07-31 11:00:00 25 12 Norte 19 Norte 0 -- -- 32
2019-07-31 10:00:00 22.2 13 Norte 24 Norte 0 -- -- 38
2019-07-31 09:00:00 21.1 12 Norte 18 Norte 0 -- -- 40
2019-07-31 08:00:00 19.9 7 Norte 21 Norte 0 -- -- 39
2019-07-31 07:00:00 20.2 11 Norte 22 Nordeste 0 -- -- 37
2019-07-31 06:00:00 20.5 14 Norte 24 Norte 0 -- -- 36
2019-07-31 05:00:00 21.8 13 Nordeste 28 Nordeste 0 -- -- 34
2019-07-31 04:00:00 22.8 15 Nordeste 30 Nordeste 0 -- -- 32
2019-07-31 03:00:00 22.9 15 Norte 26 Norte 0 -- -- 31
2019-07-31 02:00:00 23.6 16 Norte 33 Norte 0 -- -- 30
2019-07-31 01:00:00 24 16 Norte 29 Norte 0 -- -- 28
2019-07-31 00:00:00 24.3 18 Norte 27 Nordeste 0 -- -- 26
2019-07-30 23:00:00 25.2 17 Norte 26 Norte 0 -- -- 24
2019-07-30 22:00:00 26.2 13 Norte 31 Norte 0 -- -- 23
2019-07-30 21:00:00 28.4 20 Norte 33 Norte 0 -- -- 20
2019-07-30 20:00:00 29.9 16 Norte 32 Norte 0 -- -- 19
2019-07-30 19:00:00 30.5 17 Norte 28 Norte 0 -- -- 19
2019-07-30 18:00:00 30.3 16 Norte 28 Norte 0 -- -- 20
2019-07-30 17:00:00 30 17 Norte 32 Norte 0 -- -- 21
2019-07-30 16:00:00 29.4 16 Norte 36 Norte 0 -- -- 22
2019-07-30 15:00:00 28.2 22 Norte 40 Norte 0 -- -- 23
2019-07-30 14:00:00 26.7 24 Norte 38 Norte 0 -- -- 25
2019-07-30 13:00:00 25.1 23 Norte 36 Norte 0 -- -- 29
2019-07-30 12:00:00 23.4 22 Norte 37 Norte 0 -- -- 35
2019-07-30 11:00:00 21.3 23 Norte 39 Norte 0 -- -- 41
2019-07-30 10:00:00 18.9 23 Norte 40 Norte 0 -- -- 48
2019-07-30 09:00:00 17 21 Norte 35 Norte 0 -- -- 53
2019-07-30 08:00:00 16.4 21 Norte 33 Nordeste 0 -- -- 53
2019-07-30 07:00:00 15.9 16 Norte 43 Norte 0 -- -- 54
2019-07-30 06:00:00 16.6 24 Norte 42 Norte 0 -- -- 54
2019-07-30 05:00:00 17.3 21 Norte 35 Norte 0 -- -- 51
2019-07-30 04:00:00 17.9 21 Norte 36 Norte 0 -- -- 47
2019-07-30 03:00:00 18.8 19 Norte 33 Norte 0 -- -- 46
2019-07-30 02:00:00 19.6 15 Norte 31 Nordeste 0 -- -- 45
2019-07-30 01:00:00 20.6 14 Norte 24 Nordeste 0 -- -- 43
2019-07-30 00:00:00 21.5 11 Norte 26 Norte 0 -- -- 39
2019-07-29 23:00:00 21.6 8 Norte 23 Norte 0 -- -- 35
2019-07-29 22:00:00 23.7 15 Norte 27 Noroeste 0 -- -- 31
2019-07-29 21:00:00 26.5 12 Noroeste 33 Oeste 0 -- -- 26
2019-07-29 20:00:00 28.4 18 Noroeste 30 Noroeste 0 -- -- 23
2019-07-29 19:00:00 29.7 17 Noroeste 31 Noroeste 0 -- -- 22
2019-07-29 18:00:00 30.8 17 Noroeste 28 Noroeste 0 -- -- 23
2019-07-29 17:00:00 31.4 15 Oeste 33 Sudoeste 0 -- -- 20
2019-07-29 16:00:00 31.3 18 Oeste 51 Sudoeste 0 -- -- 23
2019-07-29 15:00:00 30.9 15 Oeste 26 Oeste 0 -- -- 28
2019-07-29 14:00:00 29.4 7 Oeste 26 Oeste 0 -- -- 34
2019-07-29 13:00:00 28 8 Norte 21 Nordeste 0 -- -- 38
2019-07-29 12:00:00 26.3 11 Nordeste 21 Nordeste 0 -- -- 41
2019-07-29 11:00:00 24.9 11 Nordeste 22 Nordeste 0 -- -- 43
2019-07-29 10:00:00 23.1 12 Norte 25 Nordeste 0 -- -- 40
2019-07-29 09:00:00 21.4 14 Norte 25 Nordeste 0 -- -- 37
2019-07-29 08:00:00 20.2 12 Norte 24 Norte 0 -- -- 35
2019-07-29 07:00:00 20.1 14 Norte 26 Nordeste 0 -- -- 37
2019-07-29 06:00:00 20.8 17 Nordeste 27 Nordeste 0 -- -- 35
2019-07-29 05:00:00 21.3 17 Nordeste 28 Nordeste 0 -- -- 44
2019-07-29 04:00:00 19.3 8 Nordeste 12 Nordeste 0 -- -- 60
2019-07-29 03:00:00 20.6 3 Norte 7 Nordeste 0 -- -- 55
2019-07-29 02:00:00 21 3 Sur 9 Sur 0 -- -- 47
2019-07-29 01:00:00 21.4 0 Calma 8 Noroeste 0 -- -- 48
2019-07-29 00:00:00 23.1 4 Noroeste 10 Noroeste 0 -- -- 43
2019-07-28 23:00:00 25.4 4 Oeste 10 Noroeste 0 -- -- 36
2019-07-28 22:00:00 27.9 3 Sudoeste 16 Sudoeste 0 -- -- 31
2019-07-28 21:00:00 30.8 10 Sur 21 Sur 0 -- -- 27
2019-07-28 20:00:00 31.7 10 Sur 23 Sudoeste 0 -- -- 26
2019-07-28 19:00:00 31.8 14 Sudoeste 23 Sudoeste 0 -- -- 25
2019-07-28 18:00:00 32.1 9 Oeste 31 Oeste 0 -- -- 28
2019-07-28 17:00:00 32.1 7 Sur 26 Sudoeste 0 -- -- 28
2019-07-28 16:00:00 31.3 10 Sur 23 Sudoeste 0 -- -- 29
2019-07-28 15:00:00 30.4 10 Sudoeste 25 Sur 0 -- -- 31
2019-07-28 14:00:00 29.9 12 Sur 23 Oeste 0 -- -- 33
2019-07-28 13:00:00 28.3 9 Oeste 17 Oeste 0 -- -- 37
2019-07-28 12:00:00 27.2 5 Sudoeste 13 Sudoeste 0 -- -- 39
2019-07-28 11:00:00 24.5 6 Norte 12 Noroeste 0 -- -- 44
2019-07-28 10:00:00 22.8 8 Nordeste 18 Norte 0 -- -- 47
2019-07-28 09:00:00 20.3 10 Nordeste 22 Norte 0 -- -- 55
2019-07-28 08:00:00 18.5 9 Norte 24 Norte 0 -- -- 61
2019-07-28 07:00:00 18.2 14 Norte 29 Norte 0 -- -- 62
2019-07-28 06:00:00 18.9 13 Norte 24 Norte 0 -- -- 60
2019-07-28 05:00:00 19.8 16 Norte 31 Norte 0 -- -- 59
2019-07-28 04:00:00 20.2 17 Norte 26 Norte 0 -- -- 58
2019-07-28 03:00:00 21.1 14 Norte 24 Norte 0 -- -- 57
2019-07-28 02:00:00 20.5 9 Norte 14 Norte 0 -- -- 59
2019-07-28 01:00:00 22.2 4 Norte 16 Norte 0 -- -- 52
2019-07-28 00:00:00 23.9 9 Nordeste 22 Norte 0 -- -- 48
2019-07-27 23:00:00 23.4 6 Norte 13 Norte 0 -- -- 48
2019-07-26 12:00:00 -- -- -- -- -- -- -- -- --
2019-07-26 11:00:00 23 17 Norte 31 Nordeste 0 -- -- 48
2019-07-26 10:00:00 22.1 15 Norte 25 Norte 0 -- -- 52
2019-07-26 09:00:00 20.9 8 Norte 15 Norte 0 -- -- 60
2019-07-26 08:00:00 19 8 Norte 12 Norte 0 -- -- 67
2019-07-26 07:00:00 18.6 6 Norte 14 Norte 0 -- -- 71
2019-07-26 06:00:00 19.8 9 Norte 15 Noroeste 0 -- -- 70
2019-07-26 05:00:00 20.8 8 Norte 15 Norte 0 -- -- 69
2019-07-26 04:00:00 21.6 6 Norte 13 Norte 0 -- -- 67
2019-07-26 03:00:00 22.5 3 Norte 12 Norte 0 -- -- 66
2019-07-26 02:00:00 23.7 5 Norte 17 Nordeste 0 -- -- 60
2019-07-26 01:00:00 24.7 3 Nordeste 8 Nordeste 0 -- -- 55
2019-07-26 00:00:00 26.1 6 Oeste 18 Oeste 0 -- -- 49